sensor_id;sensor_type;location;lat;lon;timestamp;pressure;altitude;pressure_sealevel;temperature;humidity
36598;BME280;22607;49.550;11.940;2023-01-28T00:00:52;97343.91;;;0.63;100.00
36598;BME280;22607;49.550;11.940;2023-01-28T00:03:18;97339.75;;;0.61;100.00
36598;BME280;22607;49.550;11.940;2023-01-28T00:05:45;97323.75;;;0.69;100.00
36598;BME280;22607;49.550;11.940;2023-01-28T00:08:11;97331.28;;;0.59;100.00
36598;BME280;22607;49.550;11.940;2023-01-28T00:10:39;97334.84;;;0.71;100.00
36598;BME280;22607;49.550;11.940;2023-01-28T00:13:05;97336.94;;;0.78;100.00
36598;BME280;22607;49.550;11.940;2023-01-28T00:15:32;97332.97;;;0.73;100.00
36598;BME280;22607;49.550;11.940;2023-01-28T00:17:59;97336.91;;;0.65;100.00
36598;BME280;22607;49.550;11.940;2023-01-28T00:20:25;97334.41;;;0.64;100.00
36598;BME280;22607;49.550;11.940;2023-01-28T00:22:51;97338.56;;;0.67;100.00
36598;BME280;22607;49.550;11.940;2023-01-28T00:25:18;97338.81;;;0.62;100.00
36598;BME280;22607;49.550;11.940;2023-01-28T00:27:44;97339.84;;;0.59;100.00
36598;BME280;22607;49.550;11.940;2023-01-28T00:30:11;97342.53;;;0.58;100.00
36598;BME280;22607;49.550;11.940;2023-01-28T00:32:37;97333.13;;;0.57;100.00
36598;BME280;22607;49.550;11.940;2023-01-28T00:35:04;97337.28;;;0.59;100.00
36598;BME280;22607;49.550;11.940;2023-01-28T00:37:30;97341.31;;;0.63;100.00
36598;BME280;22607;49.550;11.940;2023-01-28T00:39:57;97346.41;;;0.65;100.00
36598;BME280;22607;49.550;11.940;2023-01-28T00:42:23;97345.97;;;0.58;100.00
36598;BME280;22607;49.550;11.940;2023-01-28T00:44:49;97348.44;;;0.60;100.00
36598;BME280;22607;49.550;11.940;2023-01-28T00:47:16;97333.13;;;0.57;100.00
36598;BME280;22607;49.550;11.940;2023-01-28T00:49:42;97347.81;;;0.56;100.00
36598;BME280;22607;49.550;11.940;2023-01-28T00:52:09;97338.75;;;0.63;100.00
36598;BME280;22607;49.550;11.940;2023-01-28T00:54:38;97342.69;;;0.69;100.00
36598;BME280;22607;49.550;11.940;2023-01-28T00:57:05;97342.88;;;0.66;100.00
36598;BME280;22607;49.550;11.940;2023-01-28T00:59:32;97346.41;;;0.65;100.00
36598;BME280;22607;49.550;11.940;2023-01-28T01:01:58;97353.41;;;0.63;100.00
36598;BME280;22607;49.550;11.940;2023-01-28T01:04:37;97350.47;;;0.69;100.00
36598;BME280;22607;49.550;11.940;2023-01-28T01:07:04;97345.88;;;0.60;100.00
36598;BME280;22607;49.550;11.940;2023-01-28T01:09:30;97357.13;;;0.59;100.00
36598;BME280;22607;49.550;11.940;2023-01-28T01:11:57;97357.72;;;0.49;100.00
36598;BME280;22607;49.550;11.940;2023-01-28T01:14:23;97352.41;;;0.65;100.00
36598;BME280;22607;49.550;11.940;2023-01-28T01:16:50;97354.25;;;0.63;100.00
36598;BME280;22607;49.550;11.940;2023-01-28T01:19:16;97362.41;;;0.57;100.00
36598;BME280;22607;49.550;11.940;2023-01-28T01:21:43;97363.97;;;0.60;100.00
36598;BME280;22607;49.550;11.940;2023-01-28T01:24:09;97366.34;;;0.63;100.00
36598;BME280;22607;49.550;11.940;2023-01-28T01:26:36;97356.75;;;0.65;100.00
36598;BME280;22607;49.550;11.940;2023-01-28T01:29:02;97358.56;;;0.63;100.00
36598;BME280;22607;49.550;11.940;2023-01-28T01:31:28;97368.28;;;0.59;100.00
36598;BME280;22607;49.550;11.940;2023-01-28T01:33:55;97367.25;;;0.62;100.00
36598;BME280;22607;49.550;11.940;2023-01-28T01:36:25;97368.91;;;0.63;100.00
36598;BME280;22607;49.550;11.940;2023-01-28T01:38:52;97364.50;;;0.65;100.00
36598;BME280;22607;49.550;11.940;2023-01-28T01:41:24;97365.13;;;0.69;100.00
36598;BME280;22607;49.550;11.940;2023-01-28T01:44:01;97372.25;;;0.65;100.00
36598;BME280;22607;49.550;11.940;2023-01-28T01:46:35;97365.97;;;0.69;100.00
36598;BME280;22607;49.550;11.940;2023-01-28T01:51:45;97366.50;;;0.74;100.00
36598;BME280;22607;49.550;11.940;2023-01-28T01:54:13;97367.72;;;0.69;100.00
36598;BME280;22607;49.550;11.940;2023-01-28T01:56:41;97362.53;;;0.69;100.00
36598;BME280;22607;49.550;11.940;2023-01-28T01:59:09;97372.78;;;0.70;100.00
36598;BME280;22607;49.550;11.940;2023-01-28T02:01:42;97375.03;;;0.62;100.00
36598;BME280;22607;49.550;11.940;2023-01-28T02:04:11;97371.84;;;0.71;100.00
36598;BME280;22607;49.550;11.940;2023-01-28T02:06:40;97377.69;;;0.75;100.00
36598;BME280;22607;49.550;11.940;2023-01-28T02:09:24;97377.25;;;0.68;100.00
36598;BME280;22607;49.550;11.940;2023-01-28T02:11:52;97381.56;;;0.68;100.00
36598;BME280;22607;49.550;11.940;2023-01-28T02:14:22;97380.72;;;0.67;100.00
36598;BME280;22607;49.550;11.940;2023-01-28T02:16:56;97384.25;;;0.66;100.00
36598;BME280;22607;49.550;11.940;2023-01-28T02:19:24;97386.13;;;0.64;100.00
36598;BME280;22607;49.550;11.940;2023-01-28T02:22:37;97387.84;;;0.63;100.00
36598;BME280;22607;49.550;11.940;2023-01-28T02:25:01;97389.81;;;0.60;100.00
36598;BME280;22607;49.550;11.940;2023-01-28T02:30:21;97395.78;;;0.60;100.00
36598;BME280;22607;49.550;11.940;2023-01-28T02:32:52;97391.28;;;0.64;100.00
36598;BME280;22607;49.550;11.940;2023-01-28T02:38:11;97399.53;;;0.56;100.00
36598;BME280;22607;49.550;11.940;2023-01-28T02:40:41;97390.75;;;0.59;100.00
36598;BME280;22607;49.550;11.940;2023-01-28T02:46:09;97393.56;;;0.69;100.00
36598;BME280;22607;49.550;11.940;2023-01-28T02:48:56;97398.09;;;0.65;100.00
36598;BME280;22607;49.550;11.940;2023-01-28T02:51:37;97394.00;;;0.75;100.00
36598;BME280;22607;49.550;11.940;2023-01-28T02:54:13;97395.31;;;0.83;100.00
36598;BME280;22607;49.550;11.940;2023-01-28T02:56:47;97396.91;;;0.71;100.00
36598;BME280;22607;49.550;11.940;2023-01-28T02:59:20;97394.19;;;0.72;100.00
36598;BME280;22607;49.550;11.940;2023-01-28T03:02:13;97387.63;;;0.81;100.00
36598;BME280;22607;49.550;11.940;2023-01-28T03:04:45;97385.91;;;0.67;100.00
36598;BME280;22607;49.550;11.940;2023-01-28T03:07:14;97390.63;;;0.75;100.00
36598;BME280;22607;49.550;11.940;2023-01-28T03:09:42;97391.28;;;0.64;100.00
36598;BME280;22607;49.550;11.940;2023-01-28T03:12:13;97397.94;;;0.68;100.00
36598;BME280;22607;49.550;11.940;2023-01-28T03:15:21;97395.47;;;0.80;100.00
36598;BME280;22607;49.550;11.940;2023-01-28T03:21:09;97396.31;;;0.80;100.00
36598;BME280;22607;49.550;11.940;2023-01-28T03:23:58;97403.16;;;0.81;100.00
36598;BME280;22607;49.550;11.940;2023-01-28T03:26:49;97399.72;;;0.81;100.00
36598;BME280;22607;49.550;11.940;2023-01-28T03:29:40;97408.94;;;0.85;100.00
36598;BME280;22607;49.550;11.940;2023-01-28T03:32:25;97408.41;;;0.80;100.00
36598;BME280;22607;49.550;11.940;2023-01-28T03:35:11;97405.28;;;0.74;100.00
36598;BME280;22607;49.550;11.940;2023-01-28T03:37:59;97408.03;;;0.86;100.00
36598;BME280;22607;49.550;11.940;2023-01-28T03:40:27;97409.31;;;0.93;100.00
36598;BME280;22607;49.550;11.940;2023-01-28T03:42:53;97411.44;;;0.86;100.00
36598;BME280;22607;49.550;11.940;2023-01-28T03:45:22;97418.38;;;0.86;100.00
36598;BME280;22607;49.550;11.940;2023-01-28T03:47:48;97412.75;;;0.79;100.00
36598;BME280;22607;49.550;11.940;2023-01-28T03:50:14;97418.94;;;0.76;100.00
36598;BME280;22607;49.550;11.940;2023-01-28T03:52:41;97412.75;;;0.79;100.00
36598;BME280;22607;49.550;11.940;2023-01-28T03:55:07;97418.94;;;0.76;100.00
36598;BME280;22607;49.550;11.940;2023-01-28T03:57:40;97419.72;;;0.64;100.00
36598;BME280;22607;49.550;11.940;2023-01-28T04:00:06;97424.28;;;0.88;100.00
36598;BME280;22607;49.550;11.940;2023-01-28T04:02:33;97422.06;;;0.96;100.00
36598;BME280;22607;49.550;11.940;2023-01-28T04:05:00;97419.28;;;0.85;100.00
36598;BME280;22607;49.550;11.940;2023-01-28T04:07:32;97420.69;;;0.90;100.00
36598;BME280;22607;49.550;11.940;2023-01-28T04:09:58;97423.44;;;0.87;100.00
36598;BME280;22607;49.550;11.940;2023-01-28T04:12:26;97426.38;;;0.96;100.00
36598;BME280;22607;49.550;11.940;2023-01-28T04:14:52;97428.66;;;1.00;100.00
36598;BME280;22607;49.550;11.940;2023-01-28T04:17:18;97435.78;;;0.97;100.00
36598;BME280;22607;49.550;11.940;2023-01-28T04:19:45;97429.59;;;0.99;100.00
36598;BME280;22607;49.550;11.940;2023-01-28T04:22:11;97434.63;;;0.88;100.00
36598;BME280;22607;49.550;11.940;2023-01-28T04:24:39;97430.28;;;0.88;100.00
36598;BME280;22607;49.550;11.940;2023-01-28T04:27:05;97434.00;;;0.84;100.00
36598;BME280;22607;49.550;11.940;2023-01-28T04:29:31;97439.59;;;0.91;100.00
36598;BME280;22607;49.550;11.940;2023-01-28T04:32:05;97432.91;;;0.74;100.00
36598;BME280;22607;49.550;11.940;2023-01-28T04:34:31;97437.22;;;0.88;100.00
36598;BME280;22607;49.550;11.940;2023-01-28T04:36:57;97433.16;;;0.84;100.00
36598;BME280;22607;49.550;11.940;2023-01-28T04:39:24;97438.34;;;0.84;100.00
36598;BME280;22607;49.550;11.940;2023-01-28T04:41:50;97439.81;;;0.88;100.00
36598;BME280;22607;49.550;11.940;2023-01-28T04:44:21;97443.59;;;0.82;100.00
36598;BME280;22607;49.550;11.940;2023-01-28T04:46:47;97447.50;;;0.75;100.00
36598;BME280;22607;49.550;11.940;2023-01-28T04:49:13;97441.75;;;0.84;100.00
36598;BME280;22607;49.550;11.940;2023-01-28T04:51:40;97446.81;;;0.86;100.00
36598;BME280;22607;49.550;11.940;2023-01-28T04:54:07;97454.47;;;0.87;100.00
36598;BME280;22607;49.550;11.940;2023-01-28T04:56:33;97443.59;;;0.82;100.00
36598;BME280;22607;49.550;11.940;2023-01-28T04:59:00;97445.34;;;0.96;100.00
36598;BME280;22607;49.550;11.940;2023-01-28T05:01:30;97443.09;;;0.90;100.00
36598;BME280;22607;49.550;11.940;2023-01-28T05:03:57;97444.69;;;0.93;100.00
36598;BME280;22607;49.550;11.940;2023-01-28T05:06:23;97444.59;;;0.94;100.00
36598;BME280;22607;49.550;11.940;2023-01-28T05:08:50;97436.84;;;0.80;100.00
36598;BME280;22607;49.550;11.940;2023-01-28T05:11:16;97443.94;;;0.90;100.00
36598;BME280;22607;49.550;11.940;2023-01-28T05:13:42;97438.69;;;0.92;100.00
36598;BME280;22607;49.550;11.940;2023-01-28T05:16:09;97442.75;;;0.96;100.00
36598;BME280;22607;49.550;11.940;2023-01-28T05:18:39;97438.81;;;1.03;100.00
36598;BME280;22607;49.550;11.940;2023-01-28T05:21:06;97439.94;;;0.99;100.00
36598;BME280;22607;49.550;11.940;2023-01-28T05:23:39;97444.19;;;1.00;100.00
36598;BME280;22607;49.550;11.940;2023-01-28T05:26:06;97443.56;;;0.97;100.00
36598;BME280;22607;49.550;11.940;2023-01-28T05:28:38;97446.53;;;0.90;100.00
36598;BME280;22607;49.550;11.940;2023-01-28T05:31:05;97450.34;;;0.85;100.00
36598;BME280;22607;49.550;11.940;2023-01-28T05:33:33;97440.16;;;0.82;100.00
36598;BME280;22607;49.550;11.940;2023-01-28T05:36:00;97442.78;;;0.67;100.00
36598;BME280;22607;49.550;11.940;2023-01-28T05:38:26;97442.13;;;0.78;100.00
36598;BME280;22607;49.550;11.940;2023-01-28T05:40:53;97449.78;;;0.80;100.00
36598;BME280;22607;49.550;11.940;2023-01-28T05:43:19;97449.94;;;0.91;100.00
36598;BME280;22607;49.550;11.940;2023-01-28T05:45:46;97450.25;;;0.86;100.00
36598;BME280;22607;49.550;11.940;2023-01-28T05:48:13;97456.66;;;0.66;100.00
36598;BME280;22607;49.550;11.940;2023-01-28T05:50:47;97453.50;;;0.75;100.00
36598;BME280;22607;49.550;11.940;2023-01-28T05:53:13;97447.97;;;0.67;100.00
36598;BME280;22607;49.550;11.940;2023-01-28T05:55:40;97448.06;;;0.65;100.00
36598;BME280;22607;49.550;11.940;2023-01-28T05:58:09;97450.91;;;0.75;100.00
36598;BME280;22607;49.550;11.940;2023-01-28T06:00:35;97447.88;;;0.69;100.00
36598;BME280;22607;49.550;11.940;2023-01-28T06:03:02;97454.06;;;0.66;100.00
36598;BME280;22607;49.550;11.940;2023-01-28T06:05:28;97448.63;;;0.71;100.00
36598;BME280;22607;49.550;11.940;2023-01-28T06:07:55;97459.59;;;0.74;100.00
36598;BME280;22607;49.550;11.940;2023-01-28T06:10:21;97457.19;;;0.71;100.00
36598;BME280;22607;49.550;11.940;2023-01-28T06:12:48;97465.41;;;0.78;100.00
36598;BME280;22607;49.550;11.940;2023-01-28T06:15:14;97465.31;;;0.80;100.00
36598;BME280;22607;49.550;11.940;2023-01-28T06:20:24;97467.50;;;0.86;100.00
36598;BME280;22607;49.550;11.940;2023-01-28T06:22:52;97461.78;;;0.81;100.00
36598;BME280;22607;49.550;11.940;2023-01-28T06:25:18;97475.09;;;0.74;100.00
36598;BME280;22607;49.550;11.940;2023-01-28T06:27:45;97474.44;;;0.85;100.00
36598;BME280;22607;49.550;11.940;2023-01-28T06:30:11;97479.22;;;0.91;100.00
36598;BME280;22607;49.550;11.940;2023-01-28T06:32:38;97477.66;;;0.89;100.00
36598;BME280;22607;49.550;11.940;2023-01-28T06:35:04;97478.59;;;0.88;100.00
36598;BME280;22607;49.550;11.940;2023-01-28T06:37:44;97480.56;;;0.84;100.00
36598;BME280;22607;49.550;11.940;2023-01-28T06:40:10;97484.88;;;0.84;100.00
36598;BME280;22607;49.550;11.940;2023-01-28T06:42:38;97489.03;;;0.86;100.00
36598;BME280;22607;49.550;11.940;2023-01-28T06:45:04;97492.56;;;0.85;100.00
36598;BME280;22607;49.550;11.940;2023-01-28T06:47:31;97491.72;;;0.85;100.00
36598;BME280;22607;49.550;11.940;2023-01-28T06:49:57;97491.16;;;0.80;100.00
36598;BME280;22607;49.550;11.940;2023-01-28T06:52:24;97495.06;;;0.87;100.00
36598;BME280;22607;49.550;11.940;2023-01-28T06:54:51;97500.03;;;0.75;100.00
36598;BME280;22607;49.550;11.940;2023-01-28T06:57:17;97502.72;;;0.74;100.00
36598;BME280;22607;49.550;11.940;2023-01-28T06:59:44;97506.13;;;0.74;100.00
36598;BME280;22607;49.550;11.940;2023-01-28T07:02:10;97506.78;;;0.78;100.00
36598;BME280;22607;49.550;11.940;2023-01-28T07:04:36;97508.44;;;0.79;100.00
36598;BME280;22607;49.550;11.940;2023-01-28T07:07:03;97509.19;;;0.81;100.00
36598;BME280;22607;49.550;11.940;2023-01-28T07:09:30;97514.44;;;0.80;100.00
36598;BME280;22607;49.550;11.940;2023-01-28T07:11:57;97519.44;;;0.83;100.00
36598;BME280;22607;49.550;11.940;2023-01-28T07:14:23;97521.09;;;0.69;100.00
36598;BME280;22607;49.550;11.940;2023-01-28T07:16:50;97528.66;;;0.72;100.00
36598;BME280;22607;49.550;11.940;2023-01-28T07:19:17;97534.41;;;0.77;100.00
36598;BME280;22607;49.550;11.940;2023-01-28T07:21:43;97532.72;;;0.76;100.00
36598;BME280;22607;49.550;11.940;2023-01-28T07:24:10;97535.31;;;0.76;100.00
36598;BME280;22607;49.550;11.940;2023-01-28T07:26:36;97524.78;;;0.80;100.00
36598;BME280;22607;49.550;11.940;2023-01-28T07:29:03;97525.91;;;0.75;100.00
36598;BME280;22607;49.550;11.940;2023-01-28T07:31:29;97530.44;;;0.72;100.00
36598;BME280;22607;49.550;11.940;2023-01-28T07:33:56;97529.78;;;0.83;100.00
36598;BME280;22607;49.550;11.940;2023-01-28T07:36:22;97535.84;;;0.82;100.00
36598;BME280;22607;49.550;11.940;2023-01-28T07:41:18;97530.25;;;0.75;100.00
36598;BME280;22607;49.550;11.940;2023-01-28T07:43:51;97536.44;;;0.87;100.00
36598;BME280;22607;49.550;11.940;2023-01-28T07:46:17;97544.28;;;0.85;100.00
36598;BME280;22607;49.550;11.940;2023-01-28T07:48:43;97523.84;;;0.81;100.00
36598;BME280;22607;49.550;11.940;2023-01-28T07:51:10;97543.06;;;0.91;100.00
36598;BME280;22607;49.550;11.940;2023-01-28T07:53:39;97544.91;;;0.89;100.00
36598;BME280;22607;49.550;11.940;2023-01-28T07:56:05;97550.66;;;0.80;100.00
36598;BME280;22607;49.550;11.940;2023-01-28T07:58:32;97543.91;;;0.91;100.00
36598;BME280;22607;49.550;11.940;2023-01-28T08:01:03;97548.59;;;0.85;100.00
36598;BME280;22607;49.550;11.940;2023-01-28T08:03:30;97546.41;;;0.93;100.00
36598;BME280;22607;49.550;11.940;2023-01-28T08:05:56;97548.97;;;0.93;100.00
36598;BME280;22607;49.550;11.940;2023-01-28T08:08:24;97545.28;;;0.97;100.00
36598;BME280;22607;49.550;11.940;2023-01-28T08:10:51;97554.16;;;0.93;100.00
36598;BME280;22607;49.550;11.940;2023-01-28T08:13:18;97555.63;;;0.97;100.00
36598;BME280;22607;49.550;11.940;2023-01-28T08:15:45;97550.91;;;1.04;100.00
36598;BME280;22607;49.550;11.940;2023-01-28T08:18:14;97554.31;;;1.04;100.00
36598;BME280;22607;49.550;11.940;2023-01-28T08:20:41;97556.44;;;0.98;100.00
36598;BME280;22607;49.550;11.940;2023-01-28T08:23:28;97559.41;;;1.06;100.00
36598;BME280;22607;49.550;11.940;2023-01-28T08:25:57;97568.72;;;1.09;100.00
36598;BME280;22607;49.550;11.940;2023-01-28T08:28:24;97562.81;;;1.07;100.00
36598;BME280;22607;49.550;11.940;2023-01-28T08:30:51;97561.19;;;1.06;100.00
36598;BME280;22607;49.550;11.940;2023-01-28T08:33:19;97559.50;;;1.04;100.00
36598;BME280;22607;49.550;11.940;2023-01-28T08:35:45;97565.66;;;1.16;100.00
36598;BME280;22607;49.550;11.940;2023-01-28T08:38:12;97560.97;;;1.09;100.00
36598;BME280;22607;49.550;11.940;2023-01-28T08:40:40;97558.75;;;1.02;100.00
36598;BME280;22607;49.550;11.940;2023-01-28T08:43:06;97562.16;;;1.17;100.00
36598;BME280;22607;49.550;11.940;2023-01-28T08:45:33;97563.75;;;1.20;100.00
36598;BME280;22607;49.550;11.940;2023-01-28T08:48:01;97560.94;;;1.23;100.00
36598;BME280;22607;49.550;11.940;2023-01-28T08:50:29;97555.50;;;1.28;100.00
36598;BME280;22607;49.550;11.940;2023-01-28T08:53:03;97551.97;;;1.29;100.00
36598;BME280;22607;49.550;11.940;2023-01-28T08:55:31;97553.00;;;1.26;100.00
36598;BME280;22607;49.550;11.940;2023-01-28T08:58:07;97561.69;;;1.25;100.00
36598;BME280;22607;49.550;11.940;2023-01-28T09:00:35;97566.66;;;1.28;100.00
36598;BME280;22607;49.550;11.940;2023-01-28T09:03:04;97561.28;;;1.31;100.00
36598;BME280;22607;49.550;11.940;2023-01-28T09:05:32;97571.09;;;1.26;100.00
36598;BME280;22607;49.550;11.940;2023-01-28T09:08:06;97573.31;;;1.33;100.00
36598;BME280;22607;49.550;11.940;2023-01-28T09:10:33;97574.41;;;1.28;100.00
36598;BME280;22607;49.550;11.940;2023-01-28T09:13:03;97571.03;;;1.28;100.00
36598;BME280;22607;49.550;11.940;2023-01-28T09:15:30;97575.19;;;1.16;100.00
36598;BME280;22607;49.550;11.940;2023-01-28T09:17:58;97579.59;;;1.28;100.00
36598;BME280;22607;49.550;11.940;2023-01-28T09:20:25;97578.78;;;1.28;100.00
36598;BME280;22607;49.550;11.940;2023-01-28T09:22:51;97576.81;;;1.31;100.00
36598;BME280;22607;49.550;11.940;2023-01-28T09:25:18;97578.47;;;1.33;100.00
36598;BME280;22607;49.550;11.940;2023-01-28T09:27:47;97579.59;;;1.28;100.00
36598;BME280;22607;49.550;11.940;2023-01-28T09:30:13;97582.53;;;1.37;100.00
36598;BME280;22607;49.550;11.940;2023-01-28T09:32:57;97586.25;;;1.33;100.00
36598;BME280;22607;49.550;11.940;2023-01-28T09:35:24;97587.63;;;1.38;100.00
36598;BME280;22607;49.550;11.940;2023-01-28T09:37:54;97591.78;;;1.41;100.00
36598;BME280;22607;49.550;11.940;2023-01-28T09:40:28;97589.19;;;1.41;100.00
36598;BME280;22607;49.550;11.940;2023-01-28T09:45:31;97597.94;;;1.53;100.00
36598;BME280;22607;49.550;11.940;2023-01-28T09:48:01;97605.56;;;1.41;100.00
36598;BME280;22607;49.550;11.940;2023-01-28T09:50:31;97614.38;;;1.39;100.00
36598;BME280;22607;49.550;11.940;2023-01-28T09:53:32;97607.88;;;1.31;100.00
36598;BME280;22607;49.550;11.940;2023-01-28T09:55:54;97610.66;;;1.43;100.00
36598;BME280;22607;49.550;11.940;2023-01-28T09:58:21;97616.59;;;1.30;100.00
36598;BME280;22607;49.550;11.940;2023-01-28T10:03:54;97613.44;;;1.40;100.00
36598;BME280;22607;49.550;11.940;2023-01-28T10:09:05;97609.19;;;1.39;100.00
36598;BME280;22607;49.550;11.940;2023-01-28T10:20:02;97617.22;;;1.34;98.82
36598;BME280;22607;49.550;11.940;2023-01-28T10:22:36;97610.44;;;1.46;100.00
36598;BME280;22607;49.550;11.940;2023-01-28T10:25:05;97608.78;;;1.45;100.00
36598;BME280;22607;49.550;11.940;2023-01-28T10:27:33;97612.72;;;1.65;98.65
36598;BME280;22607;49.550;11.940;2023-01-28T10:30:22;97610.28;;;1.49;96.76
36598;BME280;22607;49.550;11.940;2023-01-28T10:32:52;97615.16;;;1.54;97.73
36598;BME280;22607;49.550;11.940;2023-01-28T10:35:19;97613.69;;;1.50;95.80
36598;BME280;22607;49.550;11.940;2023-01-28T10:37:47;97607.09;;;1.59;96.03
36598;BME280;22607;49.550;11.940;2023-01-28T10:40:15;97609.81;;;1.42;95.94
36598;BME280;22607;49.550;11.940;2023-01-28T10:42:42;97609.28;;;1.37;97.51
36598;BME280;22607;49.550;11.940;2023-01-28T10:47:58;97609.53;;;1.33;97.34
36598;BME280;22607;49.550;11.940;2023-01-28T10:50:27;97598.84;;;1.39;98.52
36598;BME280;22607;49.550;11.940;2023-01-28T10:52:57;97602.78;;;1.44;95.93
36598;BME280;22607;49.550;11.940;2023-01-28T10:55:26;97600.41;;;1.41;95.00
36598;BME280;22607;49.550;11.940;2023-01-28T10:57:54;97603.81;;;1.27;96.61
36598;BME280;22607;49.550;11.940;2023-01-28T11:00:27;97613.44;;;1.40;98.01
36598;BME280;22607;49.550;11.940;2023-01-28T11:05:50;97605.72;;;1.53;94.68
36598;BME280;22607;49.550;11.940;2023-01-28T11:08:18;97608.06;;;1.43;93.91
36598;BME280;22607;49.550;11.940;2023-01-28T11:10:45;97606.72;;;1.23;92.26
36598;BME280;22607;49.550;11.940;2023-01-28T11:18:38;97600.19;;;1.59;92.99
36598;BME280;22607;49.550;11.940;2023-01-28T11:21:13;97604.78;;;1.68;93.68
36598;BME280;22607;49.550;11.940;2023-01-28T11:26:14;97609.03;;;1.69;92.07
36598;BME280;22607;49.550;11.940;2023-01-28T11:28:42;97606.88;;;1.76;92.44
36598;BME280;22607;49.550;11.940;2023-01-28T11:31:11;97612.25;;;1.73;91.48
36598;BME280;22607;49.550;11.940;2023-01-28T11:33:40;97616.31;;;1.77;91.07
36598;BME280;22607;49.550;11.940;2023-01-28T11:36:13;97612.06;;;1.76;87.79
36598;BME280;22607;49.550;11.940;2023-01-28T11:38:50;97609.47;;;1.76;87.22
36598;BME280;22607;49.550;11.940;2023-01-28T11:41:25;97603.50;;;1.61;91.09
36598;BME280;22607;49.550;11.940;2023-01-28T11:43:52;97609.28;;;1.65;89.07
36598;BME280;22607;49.550;11.940;2023-01-28T11:48:58;97597.47;;;1.61;88.30
36598;BME280;22607;49.550;11.940;2023-01-28T11:51:34;97600.44;;;1.82;86.16
36598;BME280;22607;49.550;11.940;2023-01-28T12:02:01;97595.94;;;1.86;84.81
36598;BME280;22607;49.550;11.940;2023-01-28T12:21:06;97595.25;;;1.96;83.30
36598;BME280;22607;49.550;11.940;2023-01-28T12:41:17;97593.56;;;1.68;84.92
36598;BME280;22607;49.550;11.940;2023-01-28T12:43:56;97594.59;;;1.93;84.15
36598;BME280;22607;49.550;11.940;2023-01-28T12:46:34;97592.31;;;1.88;83.12
36598;BME280;22607;49.550;11.940;2023-01-28T12:51:44;97600.41;;;1.96;82.84
36598;BME280;22607;49.550;11.940;2023-01-28T12:54:15;97595.69;;;2.03;85.05
36598;BME280;22607;49.550;11.940;2023-01-28T12:56:46;97592.47;;;2.13;84.86
36598;BME280;22607;49.550;11.940;2023-01-28T12:59:20;97599.38;;;1.99;82.19
36598;BME280;22607;49.550;11.940;2023-01-28T13:04:49;97594.22;;;1.99;81.90
36598;BME280;22607;49.550;11.940;2023-01-28T13:07:26;97596.59;;;2.02;81.85
36598;BME280;22607;49.550;11.940;2023-01-28T13:09:58;97592.44;;;2.00;82.09
36598;BME280;22607;49.550;11.940;2023-01-28T13:12:28;97593.25;;;1.73;81.32
36598;BME280;22607;49.550;11.940;2023-01-28T13:14:54;97596.50;;;1.76;83.70
36598;BME280;22607;49.550;11.940;2023-01-28T13:19:51;97601.28;;;1.82;84.35
36598;BME280;22607;49.550;11.940;2023-01-28T13:22:31;97599.44;;;1.85;82.14
36598;BME280;22607;49.550;11.940;2023-01-28T13:25:11;97606.34;;;1.71;83.20
36598;BME280;22607;49.550;11.940;2023-01-28T13:27:38;97602.28;;;1.67;82.74
36598;BME280;22607;49.550;11.940;2023-01-28T13:32:57;97609.13;;;1.68;82.58
36598;BME280;22607;49.550;11.940;2023-01-28T13:35:27;97605.00;;;1.78;81.82
36598;BME280;22607;49.550;11.940;2023-01-28T13:37:55;97614.09;;;1.71;82.55
36598;BME280;22607;49.550;11.940;2023-01-28T13:40:23;97608.34;;;1.80;82.10
36598;BME280;22607;49.550;11.940;2023-01-28T13:43:04;97612.78;;;1.78;81.96
36598;BME280;22607;49.550;11.940;2023-01-28T13:45:31;97610.94;;;1.80;82.13
36598;BME280;22607;49.550;11.940;2023-01-28T13:48:00;97612.25;;;1.73;81.33
36598;BME280;22607;49.550;11.940;2023-01-28T13:50:35;97609.81;;;1.85;81.56
36598;BME280;22607;49.550;11.940;2023-01-28T13:53:32;97613.00;;;1.61;79.64
36598;BME280;22607;49.550;11.940;2023-01-28T13:55:52;97610.03;;;1.67;79.89
36598;BME280;22607;49.550;11.940;2023-01-28T13:58:30;97614.03;;;1.58;81.79
36598;BME280;22607;49.550;11.940;2023-01-28T14:02:09;97618.41;;;1.57;83.63
36598;BME280;22607;49.550;11.940;2023-01-28T14:14:40;97638.03;;;1.47;80.86
36598;BME280;22607;49.550;11.940;2023-01-28T14:17:13;97634.50;;;1.48;78.64
36598;BME280;22607;49.550;11.940;2023-01-28T14:19:41;97639.78;;;1.47;78.69
36598;BME280;22607;49.550;11.940;2023-01-28T14:22:12;97638.34;;;1.55;79.93
36598;BME280;22607;49.550;11.940;2023-01-28T14:24:41;97639.91;;;1.58;78.06
36598;BME280;22607;49.550;11.940;2023-01-28T14:27:28;97644.09;;;1.46;76.87
36598;BME280;22607;49.550;11.940;2023-01-28T14:30:09;97652.34;;;1.38;79.42
36598;BME280;22607;49.550;11.940;2023-01-28T14:32:45;97645.59;;;1.36;80.69
36598;BME280;22607;49.550;11.940;2023-01-28T14:35:15;97642.53;;;1.43;79.50
36598;BME280;22607;49.550;11.940;2023-01-28T14:37:44;97660.41;;;1.48;77.88
36598;BME280;22607;49.550;11.940;2023-01-28T14:40:12;97659.94;;;1.41;79.53
36598;BME280;22607;49.550;11.940;2023-01-28T14:42:44;97662.41;;;1.28;78.93
36598;BME280;22607;49.550;11.940;2023-01-28T14:47:42;97667.03;;;1.23;79.55
36598;BME280;22607;49.550;11.940;2023-01-28T14:50:24;97656.81;;;1.36;78.65
36598;BME280;22607;49.550;11.940;2023-01-28T14:58:19;97675.00;;;1.20;80.85
36598;BME280;22607;49.550;11.940;2023-01-28T15:00:52;97676.28;;;1.13;81.90
36598;BME280;22607;49.550;11.940;2023-01-28T15:03:19;97684.44;;;1.21;80.87
36598;BME280;22607;49.550;11.940;2023-01-28T15:06:34;97678.63;;;1.17;82.72
36598;BME280;22607;49.550;11.940;2023-01-28T15:08:40;97672.34;;;1.22;82.65
36598;BME280;22607;49.550;11.940;2023-01-28T15:11:08;97679.72;;;1.13;80.83